createdAt,value
2023-03-24T00:01:02.661Z,9.70
2023-03-24T00:03:52.315Z,9.60
2023-03-24T00:06:38.433Z,9.60
2023-03-24T00:09:24.425Z,9.70
2023-03-24T00:12:20.889Z,9.70
2023-03-24T00:15:09.006Z,9.60
2023-03-24T00:17:58.176Z,9.60
2023-03-24T00:20:46.106Z,9.60
2023-03-24T00:23:35.103Z,9.60
2023-03-24T00:26:21.338Z,9.60
2023-03-24T00:29:11.075Z,9.60
2023-03-24T00:32:02.451Z,9.70
2023-03-24T00:34:49.250Z,9.70
2023-03-24T00:37:37.488Z,9.80
2023-03-24T00:40:23.540Z,9.80
2023-03-24T00:43:09.253Z,9.80
2023-03-24T00:46:02.108Z,9.80
2023-03-24T00:48:51.276Z,9.80
2023-03-24T00:51:39.666Z,10.00
2023-03-24T00:54:27.831Z,10.10
2023-03-24T00:57:14.638Z,10.20
2023-03-24T01:00:12.806Z,10.30
2023-03-24T01:02:58.589Z,10.30
2023-03-24T01:05:48.284Z,10.40
2023-03-24T01:08:33.823Z,10.40
2023-03-24T01:11:21.117Z,10.40
2023-03-24T01:14:10.330Z,10.40
2023-03-24T01:16:56.440Z,10.50
2023-03-24T01:19:42.583Z,10.50
2023-03-24T01:22:30.574Z,10.50
2023-03-24T01:25:19.297Z,10.50
2023-03-24T01:28:07.180Z,10.50
2023-03-24T01:30:53.293Z,10.50
2023-03-24T01:33:39.639Z,10.50
2023-03-24T01:36:25.943Z,10.50
2023-03-24T01:39:11.437Z,10.50
2023-03-24T01:41:59.679Z,10.50
2023-03-24T01:44:49.966Z,10.50
2023-03-24T01:47:35.636Z,10.60
2023-03-24T01:50:20.843Z,10.50
2023-03-24T01:53:07.748Z,10.50
2023-03-24T01:55:54.369Z,10.50
2023-03-24T01:58:44.708Z,10.60
2023-03-24T02:01:31.269Z,10.50
2023-03-24T02:04:16.937Z,10.50
2023-03-24T02:07:12.576Z,10.50
2023-03-24T02:10:02.752Z,10.50
2023-03-24T02:12:48.502Z,10.50
2023-03-24T02:15:42.963Z,10.60
2023-03-24T02:18:34.166Z,10.60
2023-03-24T02:21:41.470Z,10.70
2023-03-24T02:24:29.549Z,10.80
2023-03-24T02:27:23.698Z,10.80
2023-03-24T02:30:18.063Z,10.90
2023-03-24T02:33:36.585Z,11.00
2023-03-24T02:36:49.664Z,11.10
2023-03-24T02:39:45.294Z,11.20
2023-03-24T02:42:52.548Z,11.30
2023-03-24T02:45:54.081Z,11.30
2023-03-24T02:49:09.058Z,11.40
2023-03-24T02:52:12.746Z,11.40
2023-03-24T02:55:14.965Z,11.50
2023-03-24T02:58:17.530Z,11.50
2023-03-24T03:01:32.239Z,11.60
2023-03-24T03:04:29.571Z,11.50
2023-03-24T03:07:21.722Z,11.50
2023-03-24T03:10:19.313Z,11.40
2023-03-24T03:13:16.445Z,11.40
2023-03-24T03:16:08.777Z,11.40
2023-03-24T03:19:03.346Z,11.40
2023-03-24T03:21:50.572Z,11.30
2023-03-24T03:24:41.169Z,11.30
2023-03-24T03:27:38.826Z,11.30
2023-03-24T03:30:43.687Z,11.40
2023-03-24T03:33:39.567Z,11.30
2023-03-24T03:36:28.858Z,11.30
2023-03-24T03:39:27.590Z,11.30
2023-03-24T03:42:15.421Z,11.30
2023-03-24T03:45:03.441Z,11.30
2023-03-24T03:47:49.357Z,11.20
2023-03-24T03:50:38.966Z,11.20
2023-03-24T03:53:31.690Z,11.20
2023-03-24T03:56:23.686Z,11.20
2023-03-24T03:59:34.041Z,11.20
2023-03-24T04:02:38.233Z,11.20
2023-03-24T04:05:42.571Z,11.20
2023-03-24T04:08:37.424Z,11.20
2023-03-24T04:11:31.708Z,11.20
2023-03-24T04:14:33.394Z,11.10
2023-03-24T04:17:57.351Z,11.10
2023-03-24T04:20:52.019Z,11.10
2023-03-24T04:23:50.558Z,11.10
2023-03-24T04:26:42.473Z,11.10
2023-03-24T04:29:53.034Z,11.10
2023-03-24T04:32:48.752Z,11.20
2023-03-24T04:35:42.333Z,11.20
2023-03-24T04:38:30.244Z,11.20
2023-03-24T04:41:19.756Z,11.10
2023-03-24T04:44:05.387Z,11.10
2023-03-24T04:46:56.017Z,11.10
2023-03-24T04:49:44.676Z,11.20
2023-03-24T04:52:30.846Z,11.20
2023-03-24T04:55:46.655Z,11.30
2023-03-24T04:58:34.557Z,11.40
2023-03-24T05:01:22.559Z,11.40
2023-03-24T05:04:08.398Z,11.50
2023-03-24T05:06:57.208Z,11.50
2023-03-24T05:09:45.139Z,11.50
2023-03-24T05:12:30.583Z,11.60
2023-03-24T05:15:16.108Z,11.60
2023-03-24T05:18:05.025Z,11.70
2023-03-24T05:20:50.638Z,11.70
2023-03-24T05:23:36.164Z,11.70
2023-03-24T05:26:21.513Z,11.80
2023-03-24T05:29:06.753Z,11.80
2023-03-24T05:31:52.293Z,11.80
2023-03-24T05:34:37.720Z,11.90
2023-03-24T05:37:26.458Z,11.90
2023-03-24T05:40:12.315Z,12.00
2023-03-24T05:42:57.917Z,12.10
2023-03-24T05:45:44.125Z,12.20
2023-03-24T05:48:30.195Z,12.30
2023-03-24T05:51:15.856Z,12.30
2023-03-24T05:54:01.998Z,12.30
2023-03-24T05:56:47.301Z,12.30
2023-03-24T05:59:32.793Z,12.30
2023-03-24T06:02:18.573Z,12.30
2023-03-24T06:05:04.369Z,12.40
2023-03-24T06:07:49.784Z,12.40
2023-03-24T06:10:36.907Z,12.40
2023-03-24T06:13:24.566Z,12.50
2023-03-24T06:16:10.091Z,12.50
2023-03-24T06:18:58.676Z,12.60
2023-03-24T06:21:44.705Z,12.60
2023-03-24T06:24:31.079Z,12.60
2023-03-24T06:27:18.798Z,12.60
2023-03-24T06:30:08.540Z,12.70
2023-03-24T06:32:57.284Z,12.90
2023-03-24T06:35:44.040Z,13.10
2023-03-24T06:38:29.628Z,13.20
2023-03-24T06:41:18.034Z,13.20
2023-03-24T06:44:03.709Z,13.10
2023-03-24T06:46:49.582Z,13.30
2023-03-24T06:49:37.108Z,13.30
2023-03-24T06:52:22.207Z,13.40
2023-03-24T06:55:08.619Z,13.50
2023-03-24T06:57:56.902Z,13.50
2023-03-24T07:00:42.447Z,13.50
2023-03-24T07:03:28.004Z,13.60
2023-03-24T07:06:13.327Z,13.60
2023-03-24T07:08:59.761Z,13.70
2023-03-24T07:11:45.490Z,13.80
2023-03-24T07:14:33.518Z,13.90
2023-03-24T07:17:19.171Z,14.10
2023-03-24T07:20:08.366Z,14.10
2023-03-24T07:23:02.296Z,14.30
2023-03-24T07:25:47.574Z,14.40
2023-03-24T07:28:33.154Z,14.40
2023-03-24T07:31:18.604Z,14.60
2023-03-24T07:34:07.700Z,14.60
2023-03-24T07:36:53.463Z,14.90
2023-03-24T07:39:38.983Z,15.10
2023-03-24T07:42:25.611Z,15.20
2023-03-24T07:45:14.673Z,15.30
2023-03-24T07:48:02.267Z,15.40
2023-03-24T07:50:48.043Z,15.40
2023-03-24T07:53:33.906Z,15.50
2023-03-24T07:56:19.809Z,15.60
2023-03-24T07:59:09.671Z,15.40
2023-03-24T08:01:56.946Z,15.20
2023-03-24T08:04:45.144Z,15.10
2023-03-24T08:07:35.225Z,15.00
2023-03-24T08:10:23.314Z,14.70
2023-03-24T08:13:08.744Z,14.40
2023-03-24T08:15:54.429Z,14.30
2023-03-24T08:18:40.091Z,14.30
2023-03-24T08:21:26.615Z,14.30
2023-03-24T08:24:12.260Z,14.20
2023-03-24T08:27:02.857Z,14.20
2023-03-24T08:29:48.287Z,14.20
2023-03-24T08:32:34.581Z,14.00
2023-03-24T08:35:25.693Z,13.80
2023-03-24T08:38:12.050Z,13.80
2023-03-24T08:41:03.055Z,13.80
2023-03-24T08:43:50.933Z,13.90
2023-03-24T08:46:36.745Z,13.90
2023-03-24T08:49:21.950Z,13.80
2023-03-24T08:52:08.422Z,13.80
2023-03-24T08:54:56.705Z,13.90
2023-03-24T08:57:41.978Z,14.00
2023-03-24T09:00:28.870Z,14.10
2023-03-24T09:03:21.940Z,14.30
2023-03-24T09:06:08.540Z,14.40
2023-03-24T09:08:55.378Z,14.50
2023-03-24T09:11:41.594Z,14.50
2023-03-24T09:14:27.342Z,14.50
2023-03-24T09:17:12.794Z,14.60
2023-03-24T09:20:00.246Z,14.40
2023-03-24T09:22:47.751Z,14.50
2023-03-24T09:25:35.629Z,14.40
2023-03-24T09:28:22.184Z,14.60
2023-03-24T09:31:07.682Z,14.70
2023-03-24T09:33:55.550Z,14.70
2023-03-24T09:36:41.023Z,14.60
2023-03-24T09:39:27.924Z,14.70
2023-03-24T09:42:25.932Z,14.90
2023-03-24T09:45:16.893Z,15.20
2023-03-24T09:48:13.718Z,15.30
2023-03-24T09:51:04.846Z,15.70
2023-03-24T09:53:56.464Z,16.20
2023-03-24T09:56:45.905Z,16.20
2023-03-24T09:59:36.395Z,16.40
2023-03-24T10:02:22.834Z,16.30
2023-03-24T10:05:26.980Z,16.30
2023-03-24T10:08:31.927Z,16.50
2023-03-24T10:11:33.614Z,16.20
2023-03-24T10:14:42.196Z,16.50
2023-03-24T10:17:43.429Z,16.80
2023-03-24T10:20:54.787Z,16.50
2023-03-24T10:23:45.625Z,16.70
2023-03-24T10:26:47.657Z,16.40
2023-03-24T10:29:38.408Z,16.60
2023-03-24T10:32:28.517Z,16.50
2023-03-24T10:35:43.800Z,16.40
2023-03-24T10:38:29.306Z,16.60
2023-03-24T10:41:27.554Z,17.00
2023-03-24T10:44:14.019Z,17.40
2023-03-24T10:47:07.390Z,17.60
2023-03-24T10:49:58.480Z,17.90
2023-03-24T10:52:48.625Z,17.70
2023-03-24T10:55:39.861Z,17.30
2023-03-24T10:58:40.756Z,17.00
2023-03-24T11:01:30.896Z,16.90
2023-03-24T11:04:19.866Z,17.10
2023-03-24T11:07:16.197Z,17.20
2023-03-24T11:10:08.253Z,17.20
2023-03-24T11:12:53.974Z,17.00
2023-03-24T11:16:14.055Z,17.20
2023-03-24T11:18:59.750Z,17.30
2023-03-24T11:21:46.734Z,17.40
2023-03-24T11:24:37.364Z,17.80
2023-03-24T11:27:22.767Z,17.80
2023-03-24T11:30:13.614Z,17.60
2023-03-24T11:33:00.005Z,17.60
2023-03-24T11:35:50.371Z,17.70
2023-03-24T11:38:41.532Z,18.00
2023-03-24T11:41:28.271Z,17.90
2023-03-24T11:44:22.481Z,18.20
2023-03-24T11:47:24.811Z,18.70
2023-03-24T11:50:10.086Z,18.80
2023-03-24T11:53:12.430Z,18.80
2023-03-24T11:56:08.374Z,19.20
2023-03-24T11:59:06.834Z,18.90
2023-03-24T12:01:59.464Z,18.60
2023-03-24T12:05:13.102Z,19.00
2023-03-24T12:08:04.454Z,18.80
2023-03-24T12:11:08.714Z,18.60
2023-03-24T12:13:57.381Z,18.40
2023-03-24T12:17:08.057Z,18.40
2023-03-24T12:20:23.886Z,18.40
2023-03-24T12:23:54.518Z,18.60
2023-03-24T12:26:40.604Z,18.10
2023-03-24T12:29:37.566Z,17.80
2023-03-24T12:32:32.213Z,17.80
2023-03-24T12:35:23.643Z,17.80
2023-03-24T12:38:34.298Z,17.70
2023-03-24T12:41:25.191Z,17.80
2023-03-24T12:44:14.074Z,17.30
2023-03-24T12:47:27.018Z,17.20
2023-03-24T12:50:28.221Z,16.80
2023-03-24T12:53:16.792Z,16.80
2023-03-24T12:56:21.514Z,16.80
2023-03-24T12:59:16.631Z,16.70
2023-03-24T13:02:14.367Z,16.50
2023-03-24T13:05:08.813Z,16.40
2023-03-24T13:07:58.955Z,16.20
2023-03-24T13:10:47.257Z,16.10
2023-03-24T13:13:37.461Z,15.90
2023-03-24T13:16:27.973Z,16.00
2023-03-24T13:19:23.473Z,15.90
2023-03-24T13:22:19.110Z,15.80
2023-03-24T13:25:08.961Z,15.80
2023-03-24T13:27:59.880Z,15.70
2023-03-24T13:30:45.769Z,15.70
2023-03-24T13:33:36.374Z,15.40
2023-03-24T13:36:32.348Z,14.60
2023-03-24T13:39:21.379Z,14.30
2023-03-24T13:42:07.808Z,14.10
2023-03-24T13:44:55.859Z,14.10
2023-03-24T13:48:04.469Z,14.10
2023-03-24T13:50:59.688Z,14.20
2023-03-24T13:54:05.472Z,14.30
2023-03-24T13:57:03.317Z,14.40
2023-03-24T14:00:08.559Z,14.50
2023-03-24T14:02:56.256Z,14.50
2023-03-24T14:05:58.932Z,14.50
2023-03-24T14:08:53.574Z,14.50
2023-03-24T14:11:51.068Z,14.40
2023-03-24T14:15:16.137Z,14.30
2023-03-24T14:18:25.365Z,13.90
2023-03-24T14:21:11.998Z,14.00
2023-03-24T14:23:59.586Z,14.20
2023-03-24T14:26:48.465Z,14.20
2023-03-24T14:29:40.208Z,14.10
2023-03-24T14:32:28.563Z,14.00
2023-03-24T14:35:34.835Z,14.00
2023-03-24T14:38:27.514Z,14.30
2023-03-24T14:41:16.337Z,14.70
2023-03-24T14:44:06.582Z,15.70
2023-03-24T14:46:52.448Z,15.90
2023-03-24T14:49:43.940Z,15.80
2023-03-24T14:52:33.089Z,15.90
2023-03-24T14:55:20.040Z,16.10
2023-03-24T14:58:26.787Z,16.20
2023-03-24T15:01:12.761Z,16.70
2023-03-24T15:04:05.703Z,19.00
2023-03-24T15:06:51.938Z,20.70
2023-03-24T15:09:38.645Z,19.20
2023-03-24T15:12:24.893Z,18.40
2023-03-24T15:15:26.394Z,17.80
2023-03-24T15:18:18.191Z,17.70
2023-03-24T15:21:25.570Z,17.40
2023-03-24T15:24:38.059Z,18.50
2023-03-24T15:27:26.722Z,17.70
2023-03-24T15:30:18.918Z,17.30
2023-03-24T15:33:06.989Z,16.90
2023-03-24T15:35:59.719Z,16.60
2023-03-24T15:38:47.296Z,17.50
2023-03-24T15:41:36.116Z,17.70
2023-03-24T15:44:31.149Z,17.40
2023-03-24T15:47:24.412Z,17.70
2023-03-24T15:50:32.205Z,18.50
2023-03-24T15:53:17.760Z,18.60
2023-03-24T15:56:22.726Z,18.50
2023-03-24T15:59:10.966Z,20.30
2023-03-24T16:01:56.521Z,22.10
2023-03-24T16:04:41.890Z,21.60
2023-03-24T16:07:36.119Z,20.90
2023-03-24T16:10:40.363Z,20.70
2023-03-24T16:13:28.547Z,19.90
2023-03-24T16:16:14.096Z,20.60
2023-03-24T16:18:59.588Z,20.40
2023-03-24T16:21:45.209Z,19.20
2023-03-24T16:24:30.601Z,18.00
2023-03-24T16:27:16.686Z,17.00
2023-03-24T16:30:05.427Z,16.90
2023-03-24T16:32:51.624Z,16.90
2023-03-24T16:35:42.409Z,16.40
2023-03-24T16:38:33.081Z,16.10
2023-03-24T16:41:18.504Z,15.80
2023-03-24T16:44:03.813Z,15.50
2023-03-24T16:46:55.409Z,15.30
2023-03-24T16:49:43.179Z,15.10
2023-03-24T16:52:29.065Z,14.80
2023-03-24T16:55:14.638Z,14.60
2023-03-24T16:58:02.878Z,14.50
2023-03-24T17:00:49.604Z,14.40
2023-03-24T17:03:35.444Z,14.30
2023-03-24T17:06:24.127Z,14.20
2023-03-24T17:09:10.745Z,14.20
2023-03-24T17:11:59.098Z,14.00
2023-03-24T17:14:45.411Z,13.90
2023-03-24T17:17:38.344Z,13.80
2023-03-24T17:20:24.916Z,13.60
2023-03-24T17:23:16.142Z,13.40
2023-03-24T17:26:01.680Z,13.30
2023-03-24T17:28:47.275Z,13.20
2023-03-24T17:31:33.713Z,13.00
2023-03-24T17:34:22.158Z,12.90
2023-03-24T17:37:07.856Z,12.70
2023-03-24T17:39:53.280Z,12.70
2023-03-24T17:42:40.705Z,12.50
2023-03-24T17:45:26.272Z,12.40
2023-03-24T17:48:11.475Z,12.40
2023-03-24T17:50:57.389Z,12.40
2023-03-24T17:53:45.173Z,12.30
2023-03-24T17:56:31.100Z,12.20
2023-03-24T17:59:19.880Z,12.30
2023-03-24T18:02:06.469Z,12.50
2023-03-24T18:04:54.265Z,12.50
2023-03-24T18:07:40.732Z,12.70
2023-03-24T18:10:26.320Z,12.80
2023-03-24T18:13:12.136Z,12.80
2023-03-24T18:16:02.032Z,12.50
2023-03-24T18:18:52.481Z,12.50
2023-03-24T18:21:39.702Z,12.50
2023-03-24T18:24:25.744Z,12.20
2023-03-24T18:27:13.360Z,11.90
2023-03-24T18:29:58.680Z,11.70
2023-03-24T18:32:44.093Z,11.50
2023-03-24T18:35:31.619Z,11.30
2023-03-24T18:38:22.151Z,11.10
2023-03-24T18:41:13.963Z,10.90
2023-03-24T18:43:59.977Z,10.80
2023-03-24T18:46:47.681Z,10.70
2023-03-24T18:49:33.017Z,10.60
2023-03-24T18:52:18.924Z,10.40
2023-03-24T18:55:07.764Z,10.30
2023-03-24T18:57:53.381Z,10.00
2023-03-24T19:00:38.719Z,10.00
2023-03-24T19:03:28.879Z,9.90
2023-03-24T19:06:15.594Z,9.80
2023-03-24T19:09:01.524Z,10.10
2023-03-24T19:11:47.858Z,10.00
2023-03-24T19:14:34.188Z,9.80
2023-03-24T19:17:19.407Z,10.10
2023-03-24T19:20:07.287Z,10.20
2023-03-24T19:22:55.914Z,10.40
2023-03-24T19:25:42.783Z,10.70
2023-03-24T19:28:32.787Z,11.10
2023-03-24T19:31:22.233Z,11.30
2023-03-24T19:34:08.764Z,11.50
2023-03-24T19:36:56.642Z,11.50
2023-03-24T19:39:41.921Z,11.80
2023-03-24T19:42:31.594Z,11.60
2023-03-24T19:45:19.708Z,11.40
2023-03-24T19:48:05.843Z,11.30
2023-03-24T19:50:53.242Z,11.10
2023-03-24T19:53:39.322Z,11.10
2023-03-24T19:56:25.746Z,11.00
2023-03-24T19:59:13.398Z,11.30
2023-03-24T20:02:01.811Z,11.40
2023-03-24T20:04:47.831Z,11.50
2023-03-24T20:07:35.330Z,11.50
2023-03-24T20:10:23.197Z,11.30
2023-03-24T20:13:13.128Z,11.00
2023-03-24T20:15:58.589Z,11.00
2023-03-24T20:18:44.424Z,11.20
2023-03-24T20:21:30.149Z,11.10
2023-03-24T20:24:20.064Z,11.00
2023-03-24T20:27:09.546Z,11.00
2023-03-24T20:29:57.583Z,11.00
2023-03-24T20:32:43.108Z,10.90
2023-03-24T20:35:29.135Z,11.00
2023-03-24T20:38:15.504Z,10.90
2023-03-24T20:41:08.622Z,10.80
2023-03-24T20:43:54.202Z,10.80
2023-03-24T20:46:40.006Z,10.80
2023-03-24T20:49:25.991Z,10.80
2023-03-24T20:52:14.208Z,10.80
2023-03-24T20:55:01.544Z,10.80
2023-03-24T20:57:49.631Z,10.90
2023-03-24T21:00:37.942Z,10.80
2023-03-24T21:03:24.740Z,10.80
2023-03-24T21:06:10.810Z,10.80
2023-03-24T21:08:57.822Z,10.80
2023-03-24T21:11:43.396Z,10.90
2023-03-24T21:14:30.099Z,10.80
2023-03-24T21:17:15.975Z,10.60
2023-03-24T21:20:12.942Z,10.40
2023-03-24T21:23:03.388Z,10.40
2023-03-24T21:25:49.347Z,10.40
2023-03-24T21:28:34.708Z,10.30
2023-03-24T21:31:28.799Z,10.40
2023-03-24T21:34:14.824Z,10.40
2023-03-24T21:37:02.684Z,10.40
2023-03-24T21:39:48.198Z,10.40
2023-03-24T21:42:41.393Z,10.40
2023-03-24T21:45:36.020Z,10.50
2023-03-24T21:48:24.868Z,10.50
2023-03-24T21:51:10.134Z,10.40
2023-03-24T21:53:59.314Z,10.30
2023-03-24T21:56:44.701Z,10.30
2023-03-24T21:59:31.679Z,10.10
2023-03-24T22:02:18.390Z,10.00
2023-03-24T22:05:07.007Z,9.80
2023-03-24T22:07:52.796Z,9.80
2023-03-24T22:10:42.430Z,9.70
2023-03-24T22:13:28.558Z,9.50
2023-03-24T22:16:14.560Z,9.60
2023-03-24T22:19:01.968Z,9.60
2023-03-24T22:21:52.100Z,9.50
2023-03-24T22:24:37.905Z,9.40
2023-03-24T22:27:23.539Z,9.50
2023-03-24T22:30:11.503Z,9.50
2023-03-24T22:32:57.058Z,9.60
2023-03-24T22:35:44.587Z,9.50
2023-03-24T22:38:30.668Z,9.50
2023-03-24T22:41:18.162Z,9.50
2023-03-24T22:44:03.847Z,9.60
2023-03-24T22:46:49.275Z,9.50
2023-03-24T22:49:36.506Z,9.30
2023-03-24T22:52:22.003Z,9.40
2023-03-24T22:55:10.342Z,9.40
2023-03-24T22:57:55.935Z,9.30
2023-03-24T23:00:45.460Z,9.40
2023-03-24T23:03:33.342Z,9.30
2023-03-24T23:06:19.677Z,9.30
2023-03-24T23:09:08.301Z,9.30
2023-03-24T23:11:54.945Z,9.10
2023-03-24T23:14:40.609Z,9.20
2023-03-24T23:17:26.158Z,9.10
2023-03-24T23:20:12.939Z,9.10
2023-03-24T23:22:58.602Z,9.20
2023-03-24T23:25:48.563Z,9.10
2023-03-24T23:28:34.542Z,9.10
2023-03-24T23:31:24.691Z,9.10
2023-03-24T23:34:14.161Z,9.00
2023-03-24T23:37:03.175Z,8.90
2023-03-24T23:39:50.324Z,8.90
2023-03-24T23:42:43.912Z,8.80
2023-03-24T23:45:29.383Z,8.60
2023-03-24T23:48:17.023Z,8.60
2023-03-24T23:51:09.720Z,8.40
2023-03-24T23:53:55.016Z,8.30
2023-03-24T23:56:43.057Z,8.20
2023-03-24T23:59:28.358Z,8.10
